createdAt,value
2022-07-31T00:00:48.905Z,71.80
2022-07-31T00:03:15.851Z,71.90
2022-07-31T00:05:42.762Z,72.00
2022-07-31T00:08:09.887Z,72.00
2022-07-31T00:10:36.810Z,72.10
2022-07-31T00:13:03.642Z,72.20
2022-07-31T00:15:30.387Z,72.40
2022-07-31T00:17:58.039Z,72.60
2022-07-31T00:20:24.896Z,72.40
2022-07-31T00:22:51.637Z,72.30
2022-07-31T00:25:18.915Z,72.40
2022-07-31T00:27:45.862Z,72.20
2022-07-31T00:30:13.481Z,72.50
2022-07-31T00:32:41.653Z,72.60
2022-07-31T00:35:09.017Z,72.70
2022-07-31T00:37:37.871Z,72.90
2022-07-31T00:40:07.862Z,72.90
2022-07-31T00:42:34.731Z,73.10
2022-07-31T00:45:01.762Z,73.20
2022-07-31T00:47:28.653Z,73.30
2022-07-31T00:49:56.809Z,73.30
2022-07-31T00:52:23.850Z,73.40
2022-07-31T00:54:50.585Z,73.50
2022-07-31T00:57:17.426Z,73.60
2022-07-31T00:59:44.466Z,73.70
2022-07-31T01:02:11.734Z,73.70
2022-07-31T01:04:40.228Z,73.80
2022-07-31T01:07:08.611Z,73.80
2022-07-31T01:09:35.689Z,73.80
2022-07-31T01:12:25.006Z,73.90
2022-07-31T01:15:02.035Z,74.00
2022-07-31T01:17:31.222Z,73.90
2022-07-31T01:19:58.867Z,74.10
2022-07-31T01:22:43.807Z,74.20
2022-07-31T01:25:48.397Z,74.50
2022-07-31T01:28:50.071Z,74.70
2022-07-31T01:31:27.229Z,74.80
2022-07-31T01:34:05.461Z,74.80
2022-07-31T01:36:35.050Z,74.90
2022-07-31T01:39:03.967Z,74.80
2022-07-31T01:41:37.883Z,74.90
2022-07-31T01:44:07.168Z,74.90
2022-07-31T01:46:37.361Z,75.00
2022-07-31T01:49:10.918Z,75.00
2022-07-31T01:51:40.933Z,75.10
2022-07-31T01:54:08.780Z,75.20
2022-07-31T01:56:37.681Z,75.00
2022-07-31T01:59:05.832Z,75.10
2022-07-31T02:02:10.012Z,75.10
2022-07-31T02:04:37.691Z,75.20
2022-07-31T02:07:05.637Z,75.20
2022-07-31T02:09:34.377Z,75.20
2022-07-31T02:12:01.762Z,75.20
2022-07-31T02:14:31.478Z,75.20
2022-07-31T02:16:59.433Z,75.20
2022-07-31T02:19:55.418Z,75.30
2022-07-31T02:22:27.325Z,75.50
2022-07-31T02:24:54.138Z,75.70
2022-07-31T02:27:56.241Z,75.80
2022-07-31T02:30:13.374Z,75.80
2022-07-31T02:32:42.272Z,75.90
2022-07-31T02:35:09.928Z,75.90
2022-07-31T02:37:38.637Z,76.00
2022-07-31T02:40:07.844Z,76.00
2022-07-31T02:42:35.832Z,76.00
2022-07-31T02:45:03.582Z,76.00
2022-07-31T02:47:33.056Z,76.10
2022-07-31T02:50:02.747Z,76.20
2022-07-31T02:52:30.612Z,76.10
2022-07-31T02:54:58.596Z,76.00
2022-07-31T02:57:25.973Z,76.10
2022-07-31T02:59:52.719Z,76.20
2022-07-31T03:02:21.260Z,76.20
2022-07-31T03:04:48.006Z,76.30
2022-07-31T03:07:17.352Z,76.30
2022-07-31T03:09:45.485Z,76.40
2022-07-31T03:12:50.995Z,76.40
2022-07-31T03:15:23.644Z,76.40
2022-07-31T03:17:51.283Z,76.50
2022-07-31T03:20:26.391Z,76.60
2022-07-31T03:22:53.642Z,76.70
2022-07-31T03:25:22.111Z,76.70
2022-07-31T03:27:56.252Z,76.70
2022-07-31T03:30:25.469Z,76.80
2022-07-31T03:32:56.696Z,77.00
2022-07-31T03:35:25.267Z,77.10
2022-07-31T03:37:52.436Z,77.20
2022-07-31T03:40:20.412Z,77.30
2022-07-31T03:42:49.617Z,77.30
2022-07-31T03:45:17.069Z,77.30
2022-07-31T03:47:44.081Z,77.40
2022-07-31T03:50:12.330Z,77.40
2022-07-31T03:52:39.857Z,77.40
2022-07-31T03:55:09.923Z,77.40
2022-07-31T03:57:38.685Z,77.40
2022-07-31T04:00:09.103Z,77.40
2022-07-31T04:02:44.853Z,77.30
2022-07-31T04:05:31.925Z,77.40
2022-07-31T04:07:59.655Z,77.40
2022-07-31T04:10:26.842Z,77.40
2022-07-31T04:12:54.487Z,77.40
2022-07-31T04:15:21.209Z,77.30
2022-07-31T04:17:47.965Z,77.30
2022-07-31T04:20:19.850Z,77.30
2022-07-31T04:22:46.643Z,77.30
2022-07-31T04:25:27.242Z,77.30
2022-07-31T04:28:29.651Z,77.60
2022-07-31T04:30:56.620Z,78.10
2022-07-31T04:33:23.345Z,78.30
2022-07-31T04:35:50.033Z,78.30
2022-07-31T04:38:17.036Z,78.50
2022-07-31T04:40:43.949Z,78.60
2022-07-31T04:43:10.973Z,78.80
2022-07-31T04:45:37.697Z,78.80
2022-07-31T04:48:05.316Z,78.80
2022-07-31T04:50:32.083Z,78.80
2022-07-31T04:52:58.862Z,78.80
2022-07-31T04:55:29.225Z,78.80
2022-07-31T04:57:55.998Z,78.70
2022-07-31T05:00:23.014Z,78.70
2022-07-31T05:02:49.853Z,78.60
2022-07-31T05:05:18.300Z,78.70
2022-07-31T05:07:45.517Z,78.90
2022-07-31T05:10:35.088Z,78.80
2022-07-31T05:13:03.692Z,78.80
2022-07-31T05:15:32.518Z,78.50
2022-07-31T05:17:59.309Z,78.60
2022-07-31T05:20:46.053Z,78.70
2022-07-31T05:23:31.170Z,78.50
2022-07-31T05:26:13.702Z,78.40
2022-07-31T05:28:41.248Z,78.20
2022-07-31T05:31:10.095Z,78.10
2022-07-31T05:33:38.380Z,78.10
2022-07-31T05:36:05.677Z,77.90
2022-07-31T05:38:32.516Z,78.00
2022-07-31T05:41:22.551Z,77.70
2022-07-31T05:44:21.774Z,77.50
2022-07-31T05:49:26.612Z,77.50
2022-07-31T05:51:56.545Z,77.60
2022-07-31T05:54:23.677Z,77.50
2022-07-31T05:57:09.246Z,77.40
2022-07-31T05:59:40.236Z,77.20
2022-07-31T06:02:07.785Z,77.30
2022-07-31T06:04:52.706Z,77.30
2022-07-31T06:07:19.457Z,77.30
2022-07-31T06:09:46.720Z,77.50
2022-07-31T06:12:15.844Z,77.70
2022-07-31T06:14:42.829Z,77.70
2022-07-31T06:17:13.615Z,77.60
2022-07-31T06:19:40.369Z,77.90
2022-07-31T06:22:07.428Z,78.00
2022-07-31T06:24:34.481Z,78.00
2022-07-31T06:27:02.200Z,78.20
2022-07-31T06:29:41.916Z,77.80
2022-07-31T06:32:09.838Z,77.50
2022-07-31T06:34:37.027Z,77.10
2022-07-31T06:37:04.233Z,77.10
2022-07-31T06:39:55.452Z,77.10
2022-07-31T06:42:36.069Z,77.10
2022-07-31T06:45:06.252Z,77.00
2022-07-31T06:47:51.554Z,77.00
2022-07-31T06:50:29.990Z,77.30
2022-07-31T06:53:15.162Z,77.40
2022-07-31T06:55:44.509Z,77.30
2022-07-31T06:58:11.781Z,76.90
2022-07-31T07:00:38.553Z,75.80
2022-07-31T07:03:05.322Z,75.30
2022-07-31T07:05:32.094Z,74.60
2022-07-31T07:08:00.961Z,74.40
2022-07-31T07:10:27.877Z,74.00
2022-07-31T07:13:14.542Z,74.00
2022-07-31T07:15:41.323Z,73.70
2022-07-31T07:18:08.112Z,73.40
2022-07-31T07:20:40.590Z,73.30
2022-07-31T07:23:07.760Z,73.30
2022-07-31T07:25:45.930Z,73.00
2022-07-31T07:28:30.517Z,72.90
2022-07-31T07:30:59.277Z,72.90
2022-07-31T07:33:40.562Z,72.30
2022-07-31T07:36:23.766Z,72.30
2022-07-31T07:39:01.019Z,72.00
2022-07-31T07:41:29.499Z,72.00
2022-07-31T07:43:56.941Z,71.90
2022-07-31T07:46:26.735Z,72.00
2022-07-31T07:48:57.244Z,71.80
2022-07-31T07:51:35.232Z,71.20
2022-07-31T07:54:25.193Z,71.10
2022-07-31T07:57:27.750Z,71.10
2022-07-31T08:00:13.908Z,71.00
2022-07-31T08:03:47.020Z,71.10
2022-07-31T08:05:39.392Z,71.10
2022-07-31T08:08:06.253Z,71.00
2022-07-31T08:10:53.034Z,71.20
2022-07-31T08:13:24.919Z,70.80
2022-07-31T08:16:11.621Z,70.50
2022-07-31T08:18:43.904Z,70.60
2022-07-31T08:21:11.829Z,70.10
2022-07-31T08:23:38.887Z,70.20
2022-07-31T08:26:08.378Z,69.90
2022-07-31T08:28:36.048Z,69.80
2022-07-31T08:31:03.605Z,69.40
2022-07-31T08:33:33.153Z,69.60
2022-07-31T08:36:00.822Z,69.60
2022-07-31T08:38:28.631Z,69.00
2022-07-31T08:41:33.713Z,68.70
2022-07-31T08:44:05.214Z,68.40
2022-07-31T08:46:41.797Z,67.70
2022-07-31T08:49:09.906Z,67.90
2022-07-31T08:51:51.100Z,67.50
2022-07-31T08:54:41.349Z,67.30
2022-07-31T08:57:12.731Z,66.80
2022-07-31T08:59:41.816Z,66.60
2022-07-31T09:02:09.667Z,66.70
2022-07-31T09:04:41.096Z,67.10
2022-07-31T09:07:14.550Z,66.60
2022-07-31T09:09:51.527Z,66.70
2022-07-31T09:12:34.517Z,66.30
2022-07-31T09:15:04.570Z,65.80
2022-07-31T09:17:34.291Z,65.70
2022-07-31T09:20:01.584Z,65.90
2022-07-31T09:22:33.836Z,66.20
2022-07-31T09:25:21.733Z,65.90
2022-07-31T09:27:48.777Z,65.80
2022-07-31T09:30:16.783Z,65.90
2022-07-31T09:33:17.290Z,64.60
2022-07-31T09:36:02.878Z,65.00
2022-07-31T09:38:41.171Z,64.10
2022-07-31T09:41:57.874Z,64.20
2022-07-31T09:44:43.567Z,64.00
2022-07-31T09:47:24.789Z,63.80
2022-07-31T09:49:58.230Z,64.40
2022-07-31T09:52:27.477Z,63.50
2022-07-31T09:55:16.313Z,63.50
2022-07-31T09:58:00.305Z,63.60
2022-07-31T10:00:38.937Z,63.50
2022-07-31T10:03:07.024Z,62.90
2022-07-31T10:05:34.996Z,62.40
2022-07-31T10:08:03.219Z,61.90
2022-07-31T10:10:49.847Z,62.10
2022-07-31T10:13:33.178Z,61.70
2022-07-31T10:16:02.290Z,61.40
2022-07-31T10:18:49.760Z,60.90
2022-07-31T10:21:41.502Z,61.10
2022-07-31T10:24:25.985Z,61.40
2022-07-31T10:27:01.501Z,60.90
2022-07-31T10:29:40.451Z,61.00
2022-07-31T10:32:08.681Z,60.90
2022-07-31T10:34:41.307Z,61.00
2022-07-31T10:37:35.053Z,61.30
2022-07-31T10:40:26.878Z,60.90
2022-07-31T10:43:20.164Z,60.70
2022-07-31T10:46:04.370Z,60.50
2022-07-31T10:48:53.288Z,60.20
2022-07-31T10:51:51.932Z,59.70
2022-07-31T10:54:43.612Z,59.90
2022-07-31T10:57:34.983Z,59.50
2022-07-31T11:00:40.955Z,59.90
2022-07-31T11:03:26.290Z,59.60
2022-07-31T11:06:14.033Z,59.00
2022-07-31T11:08:58.306Z,59.60
2022-07-31T11:11:45.481Z,59.30
2022-07-31T11:14:40.911Z,59.40
2022-07-31T11:18:23.780Z,59.00
2022-07-31T11:20:28.788Z,59.20
2022-07-31T11:23:04.720Z,58.60
2022-07-31T11:25:36.326Z,58.30
2022-07-31T11:28:24.733Z,58.40
2022-07-31T11:30:54.101Z,58.10
2022-07-31T11:33:42.081Z,58.20
2022-07-31T11:36:20.022Z,58.10
2022-07-31T11:38:52.131Z,58.60
2022-07-31T11:41:29.849Z,58.70
2022-07-31T11:44:05.147Z,58.60
2022-07-31T11:46:33.619Z,58.50
2022-07-31T11:49:01.940Z,58.90
2022-07-31T11:51:29.571Z,58.50
2022-07-31T11:53:57.913Z,58.20
2022-07-31T11:56:26.667Z,58.30
2022-07-31T11:58:56.511Z,57.90
2022-07-31T12:01:28.167Z,57.80
2022-07-31T12:03:56.639Z,57.30
2022-07-31T12:06:23.634Z,57.30
2022-07-31T12:08:52.288Z,57.30
2022-07-31T12:11:20.823Z,57.30
2022-07-31T12:13:50.821Z,57.20
2022-07-31T12:16:21.170Z,57.60
2022-07-31T12:18:56.986Z,57.20
2022-07-31T12:21:33.260Z,58.30
2022-07-31T12:24:00.710Z,58.60
2022-07-31T12:26:28.700Z,58.10
2022-07-31T12:29:10.175Z,58.10
2022-07-31T12:31:44.625Z,58.00
2022-07-31T12:34:11.703Z,58.30
2022-07-31T12:36:38.455Z,57.70
2022-07-31T12:39:05.505Z,57.80
2022-07-31T12:41:43.173Z,57.10
2022-07-31T12:44:13.249Z,56.90
2022-07-31T12:46:41.324Z,56.90
2022-07-31T12:49:11.202Z,56.30
2022-07-31T12:51:44.107Z,56.20
2022-07-31T12:54:14.053Z,56.20
2022-07-31T12:56:41.686Z,56.80
2022-07-31T12:59:09.244Z,56.00
2022-07-31T13:01:36.836Z,55.40
2022-07-31T13:04:05.984Z,55.50
2022-07-31T13:06:36.082Z,55.80
2022-07-31T13:09:02.956Z,55.50
2022-07-31T13:11:46.680Z,55.00
2022-07-31T13:14:20.347Z,54.50
2022-07-31T13:16:48.379Z,55.10
2022-07-31T13:19:16.267Z,55.00
2022-07-31T13:21:49.463Z,55.00
2022-07-31T13:24:20.703Z,54.50
2022-07-31T13:26:48.609Z,55.10
2022-07-31T13:29:15.637Z,54.80
2022-07-31T13:31:42.485Z,55.80
2022-07-31T13:34:09.321Z,55.40
2022-07-31T13:36:39.324Z,55.60
2022-07-31T13:39:10.710Z,55.30
2022-07-31T13:41:39.023Z,55.40
2022-07-31T13:44:07.145Z,55.20
2022-07-31T13:46:34.068Z,55.50
2022-07-31T13:49:01.873Z,55.30
2022-07-31T13:51:29.964Z,54.80
2022-07-31T13:53:56.956Z,55.00
2022-07-31T13:56:37.497Z,54.70
2022-07-31T13:59:11.320Z,54.70
2022-07-31T14:02:03.849Z,54.10
2022-07-31T14:04:31.289Z,54.10
2022-07-31T14:07:03.464Z,54.00
2022-07-31T14:09:34.018Z,54.70
2022-07-31T14:12:03.843Z,54.60
2022-07-31T14:14:31.789Z,54.20
2022-07-31T14:16:58.546Z,54.20
2022-07-31T14:19:25.293Z,54.10
2022-07-31T14:22:11.384Z,54.20
2022-07-31T14:24:38.338Z,54.10
2022-07-31T14:27:05.040Z,54.10
2022-07-31T14:29:31.923Z,54.10
2022-07-31T14:32:03.254Z,54.30
2022-07-31T14:34:35.394Z,54.70
2022-07-31T14:37:03.208Z,55.30
2022-07-31T14:39:30.429Z,55.60
2022-07-31T14:41:57.179Z,56.10
2022-07-31T14:44:28.548Z,56.00
2022-07-31T14:46:56.052Z,56.00
2022-07-31T14:49:22.896Z,56.30
2022-07-31T14:51:49.639Z,56.20
2022-07-31T14:54:16.404Z,56.40
2022-07-31T14:57:00.758Z,56.70
2022-07-31T14:59:31.727Z,56.70
2022-07-31T15:01:59.078Z,56.90
2022-07-31T15:04:25.970Z,57.20
2022-07-31T15:07:07.711Z,57.30
2022-07-31T15:09:39.854Z,57.60
2022-07-31T15:12:07.066Z,57.40
2022-07-31T15:14:34.458Z,57.10
2022-07-31T15:17:01.382Z,56.40
2022-07-31T15:19:28.091Z,56.20
2022-07-31T15:22:09.968Z,56.40
2022-07-31T15:24:48.296Z,56.30
2022-07-31T15:27:18.057Z,56.60
2022-07-31T15:30:04.353Z,56.60
2022-07-31T15:32:31.881Z,56.40
2022-07-31T15:34:58.682Z,56.30
2022-07-31T15:37:25.555Z,56.50
2022-07-31T15:40:02.367Z,56.60
2022-07-31T15:42:34.232Z,56.70
2022-07-31T15:45:01.046Z,56.80
2022-07-31T15:47:27.949Z,56.40
2022-07-31T15:49:55.068Z,56.80
2022-07-31T15:52:21.843Z,56.50
2022-07-31T15:54:51.512Z,56.10
2022-07-31T15:57:20.918Z,56.40
2022-07-31T15:59:48.398Z,56.20
2022-07-31T16:02:15.414Z,56.30
2022-07-31T16:04:52.886Z,56.00
2022-07-31T16:08:32.496Z,56.20
2022-07-31T16:10:15.751Z,56.40
2022-07-31T16:12:47.088Z,56.40
2022-07-31T16:15:14.816Z,56.10
2022-07-31T16:17:43.131Z,56.00
2022-07-31T16:20:12.377Z,56.00
2022-07-31T16:22:42.181Z,56.50
2022-07-31T16:25:10.241Z,56.20
2022-07-31T16:27:37.889Z,56.40
2022-07-31T16:30:06.396Z,56.30
2022-07-31T16:32:33.709Z,56.60
2022-07-31T16:35:01.565Z,56.60
2022-07-31T16:37:50.009Z,56.30
2022-07-31T16:40:27.036Z,56.50
2022-07-31T16:43:00.946Z,56.10
2022-07-31T16:45:28.609Z,55.30
2022-07-31T16:47:55.439Z,55.00
2022-07-31T16:50:22.684Z,55.40
2022-07-31T16:52:54.178Z,54.80
2022-07-31T16:55:51.670Z,54.70
2022-07-31T16:58:11.232Z,54.50
2022-07-31T17:00:39.395Z,55.20
2022-07-31T17:03:06.405Z,54.70
2022-07-31T17:05:33.199Z,54.70
2022-07-31T17:07:59.914Z,55.00
2022-07-31T17:10:27.069Z,55.20
2022-07-31T17:12:54.515Z,55.00
2022-07-31T17:15:21.723Z,53.40
2022-07-31T17:17:48.460Z,53.90
2022-07-31T17:20:18.306Z,53.50
2022-07-31T17:22:45.974Z,53.60
2022-07-31T17:25:20.835Z,54.00
2022-07-31T17:27:47.769Z,53.50
2022-07-31T17:30:15.520Z,54.50
2022-07-31T17:32:42.558Z,54.10
2022-07-31T17:35:09.815Z,53.60
2022-07-31T17:37:40.582Z,54.40
2022-07-31T17:40:27.051Z,54.30
2022-07-31T17:42:54.784Z,54.10
2022-07-31T17:45:21.598Z,54.40
2022-07-31T17:47:48.990Z,54.20
2022-07-31T17:50:30.645Z,54.70
2022-07-31T17:52:57.398Z,54.30
2022-07-31T17:55:24.072Z,54.60
2022-07-31T17:57:50.829Z,55.00
2022-07-31T18:00:19.382Z,54.60
2022-07-31T18:02:46.166Z,55.20
2022-07-31T18:05:12.958Z,55.10
2022-07-31T18:07:39.802Z,55.70
2022-07-31T18:10:11.972Z,55.70
2022-07-31T18:12:57.562Z,55.30
2022-07-31T18:15:34.843Z,55.40
2022-07-31T18:18:02.937Z,56.30
2022-07-31T18:20:29.739Z,55.70
2022-07-31T18:22:56.490Z,56.40
2022-07-31T18:25:23.384Z,56.10
2022-07-31T18:27:52.286Z,56.20
2022-07-31T18:30:19.011Z,56.00
2022-07-31T18:32:45.734Z,56.80
2022-07-31T18:35:12.918Z,57.50
2022-07-31T18:37:39.688Z,57.90
2022-07-31T18:40:07.224Z,58.20
2022-07-31T18:42:34.021Z,58.50
2022-07-31T18:45:00.747Z,58.80
2022-07-31T18:47:27.679Z,58.80
2022-07-31T18:50:59.862Z,59.10
2022-07-31T18:52:41.235Z,59.30
2022-07-31T18:55:09.364Z,59.40
2022-07-31T18:57:36.166Z,59.80
2022-07-31T19:00:05.084Z,60.00
2022-07-31T19:02:32.005Z,59.90
2022-07-31T19:04:58.742Z,60.10
2022-07-31T19:07:27.368Z,60.60
2022-07-31T19:09:54.251Z,60.80
2022-07-31T19:12:20.950Z,61.10
2022-07-31T19:14:47.777Z,61.30
2022-07-31T19:17:18.458Z,61.40
2022-07-31T19:19:54.628Z,61.40
2022-07-31T19:22:22.238Z,61.90
2022-07-31T19:24:49.485Z,61.40
2022-07-31T19:27:16.547Z,61.80
2022-07-31T19:29:43.410Z,62.20
2022-07-31T19:32:11.451Z,62.50
2022-07-31T19:34:38.631Z,62.30
2022-07-31T19:37:10.284Z,62.30
2022-07-31T19:39:37.433Z,62.50
2022-07-31T19:42:10.785Z,62.50
2022-07-31T19:44:38.005Z,62.50
2022-07-31T19:47:06.227Z,62.40
2022-07-31T19:49:36.576Z,62.60
2022-07-31T19:52:06.008Z,62.60
2022-07-31T19:54:33.115Z,62.80
2022-07-31T19:56:59.922Z,63.20
2022-07-31T19:59:26.748Z,63.40
2022-07-31T20:01:53.445Z,63.50
2022-07-31T20:04:20.188Z,63.80
2022-07-31T20:06:46.928Z,64.00
2022-07-31T20:09:13.771Z,64.30
2022-07-31T20:11:40.535Z,64.20
2022-07-31T20:14:07.340Z,64.40
2022-07-31T20:16:34.271Z,64.50
2022-07-31T20:19:01.301Z,64.40
2022-07-31T20:21:35.087Z,64.50
2022-07-31T20:24:02.846Z,64.60
2022-07-31T20:26:31.512Z,64.40
2022-07-31T20:28:58.198Z,64.50
2022-07-31T20:31:24.948Z,64.60
2022-07-31T20:33:57.712Z,64.90
2022-07-31T20:36:26.251Z,64.80
2022-07-31T20:38:53.517Z,65.00
2022-07-31T20:41:20.533Z,65.20
2022-07-31T20:43:47.456Z,65.40
2022-07-31T20:46:15.804Z,65.60
2022-07-31T20:48:44.475Z,65.40
2022-07-31T20:51:19.057Z,65.50
2022-07-31T20:53:46.552Z,65.50
2022-07-31T20:56:13.827Z,65.70
2022-07-31T20:58:41.443Z,65.90
2022-07-31T21:01:08.556Z,66.00
2022-07-31T21:03:35.685Z,66.10
2022-07-31T21:06:03.133Z,66.30
2022-07-31T21:08:29.920Z,66.40
2022-07-31T21:10:56.914Z,66.50
2022-07-31T21:13:27.912Z,66.60
2022-07-31T21:15:54.818Z,66.70
2022-07-31T21:18:21.776Z,66.60
2022-07-31T21:20:53.227Z,66.70
2022-07-31T21:23:22.563Z,67.30
2022-07-31T21:25:50.210Z,67.10
2022-07-31T21:28:17.484Z,67.10
2022-07-31T21:30:44.416Z,67.60
2022-07-31T21:33:11.479Z,67.80
2022-07-31T21:35:39.891Z,68.20
2022-07-31T21:38:10.405Z,68.50
2022-07-31T21:40:40.036Z,68.60
2022-07-31T21:43:09.536Z,68.70
2022-07-31T21:45:43.423Z,68.90
2022-07-31T21:48:19.243Z,68.90
2022-07-31T21:50:46.531Z,68.90
2022-07-31T21:53:13.883Z,69.20
2022-07-31T21:55:40.859Z,69.20
2022-07-31T21:58:08.927Z,69.20
2022-07-31T22:00:36.062Z,69.10
2022-07-31T22:03:03.653Z,69.20
2022-07-31T22:05:49.391Z,69.30
2022-07-31T22:08:16.511Z,69.40
2022-07-31T22:10:43.410Z,69.80
2022-07-31T22:13:10.422Z,70.00
2022-07-31T22:15:52.733Z,70.50
2022-07-31T22:18:26.505Z,70.90
2022-07-31T22:20:54.299Z,71.10
2022-07-31T22:23:21.187Z,71.20
2022-07-31T22:25:51.099Z,71.20
2022-07-31T22:28:19.860Z,71.10
2022-07-31T22:30:47.511Z,71.20
2022-07-31T22:33:14.600Z,71.40
2022-07-31T22:35:41.547Z,71.70
2022-07-31T22:38:09.182Z,71.60
2022-07-31T22:40:35.972Z,71.50
2022-07-31T22:43:03.620Z,71.50
2022-07-31T22:45:30.800Z,71.50
2022-07-31T22:47:58.476Z,71.70
2022-07-31T22:50:25.552Z,71.70
2022-07-31T22:52:53.128Z,71.40
2022-07-31T22:55:20.066Z,71.30
2022-07-31T22:57:46.884Z,71.20
2022-07-31T23:00:15.032Z,71.10
2022-07-31T23:02:42.755Z,70.90
2022-07-31T23:05:10.283Z,70.80
2022-07-31T23:07:37.367Z,70.70
2022-07-31T23:10:07.763Z,70.60
2022-07-31T23:12:34.580Z,70.40
2022-07-31T23:15:01.272Z,70.50
2022-07-31T23:17:28.042Z,70.30
2022-07-31T23:19:55.040Z,70.20
2022-07-31T23:22:33.434Z,70.20
2022-07-31T23:25:03.364Z,70.30
2022-07-31T23:27:30.200Z,70.40
2022-07-31T23:29:58.601Z,70.50
2022-07-31T23:32:26.325Z,70.60
2022-07-31T23:34:53.270Z,70.70
2022-07-31T23:37:20.395Z,70.80
2022-07-31T23:39:47.216Z,70.90
2022-07-31T23:42:52.469Z,71.20
2022-07-31T23:45:19.421Z,71.40
2022-07-31T23:47:48.220Z,71.40
2022-07-31T23:50:16.454Z,71.60
2022-07-31T23:52:43.955Z,71.60
2022-07-31T23:55:12.941Z,71.70
2022-07-31T23:57:40.240Z,71.70
